• Join FlightAware (Why Join?)
  • Login
  • US Flag 
06:33AM EDT


 

Airport Tracker/Info


-or-


 

Live Flight TrackerFlight Track Log ✈ FIN666 ✈ 07-Jun-2014 ✈ EKCH / CPH - EFHK / HEL

Flight Track Log - Related Links

Times and Time Zones

All times are in EDT time to prevent confusion due to time zone crossing. See the FIN666 flight status page for this flight to view local times or setup timezone preferences in your user account.

Time Position Orientation Groundspeed Altitude Reporting Facility
EDT Latitude Longitude Course Direction KTS MPH feet Rate Location/Type
07:37AM 55.9658 13.3788 49° Northeast  Level Estimated
07:38AM 56.0349 13.5249 50° Northeast  Level Estimated
07:39AM 56.1037 13.6716 50° Northeast  Level Estimated
07:40AM 56.1753 13.8249 50° Northeast  Level Estimated
07:41AM 56.2467 13.9788 50° Northeast  Level Estimated
07:42AM 56.3179 14.1332 50° Northeast  Level Estimated
07:43AM 56.3889 14.2882 50° Northeast  Level Estimated
07:44AM 56.4597 14.4439 50° Northeast  Level Estimated
07:45AM 56.5303 14.6001 51° Northeast  Level Estimated
07:46AM 56.6007 14.7568 51° Northeast  Level Estimated
07:47AM 56.6710 14.9142 51° Northeast  Level Estimated
07:48AM 56.7410 15.0721 51° Northeast  Level Estimated
07:49AM 56.8108 15.2307 51° Northeast  Level Estimated
07:50AM 56.8804 15.3898 51° Northeast  Level Estimated
07:51AM 56.9498 15.5495 51° Northeast  Level Estimated
07:52AM 57.0190 15.7098 52° Northeast  Level Estimated
07:53AM 57.0880 15.8708 52° Northeast  Level Estimated
07:54AM 57.1568 16.0323 52° Northeast  Level Estimated
07:55AM 57.2254 16.1944 52° Northeast  Level Estimated
07:56AM 57.2948 16.3594 52° Northeast  Level Estimated
07:57AM 57.3639 16.5250 52° Northeast  Level Estimated
07:58AM 57.4328 16.6913 52° Northeast  Level Estimated
07:59AM 57.5015 16.8582 53° Northeast  Level Estimated
08:00AM 57.5699 17.0257 53° Northeast  Level Estimated
08:01AM 57.6382 17.1938 53° Northeast  Level Estimated
08:02AM 57.7062 17.3626 53° Northeast  Level Estimated
08:03AM 57.7740 17.5320 53° Northeast  Level Estimated
08:04AM 57.8415 17.7021 53° Northeast  Level Estimated
08:05AM 57.9089 17.8727 53° Northeast  Level Estimated
08:06AM 57.9760 18.0441 54° Northeast  Level Estimated
08:07AM 58.0429 18.2160 54° Northeast  Level Estimated
08:08AM 58.1095 18.3886 54° Northeast  Level Estimated
08:09AM 58.1759 18.5619 54° Northeast  Level Estimated
08:10AM 58.2421 18.7358 54° Northeast  Level Estimated
08:11AM 58.3080 18.9103 54° Northeast  Level Estimated
08:12AM 58.3737 19.0855 54° Northeast  Level Estimated
08:13AM 58.4392 19.2614 55° Northeast  Level Estimated
08:14AM 58.5044 19.4379 55° Northeast  Level Estimated
08:15AM 58.5694 19.6151 55° Northeast  Level Estimated
08:16AM 58.6341 19.7929 55° Northeast  Level Estimated
08:17AM 58.6986 19.9714 55° Northeast  Level Estimated
08:18AM 58.7628 20.1505 55° Northeast  Level Estimated
08:19AM 58.8268 20.3303 55° Northeast  Level Estimated
08:20AM 58.8905 20.5108 56° Northeast  Level Estimated
08:21AM 58.9540 20.6919 56° Northeast  Level Estimated
08:22AM 59.0172 20.8737 56° Northeast  Level Estimated
08:23AM 59.0802 21.0562 56° Northeast  Level Estimated
08:24AM 59.1429 21.2393 56° Northeast  Level Estimated
08:25AM 59.2054 21.4231 56° Northeast  Level Estimated
08:26AM 59.2676 21.6076 57° Northeast  Level Estimated
08:27AM 59.3295 21.7927 57° Northeast  Level Estimated
08:28AM 59.3912 21.9786 57° Northeast  Level Estimated
08:29AM 59.4526 22.1651 57° Northeast  Level Estimated
08:30AM 59.5137 22.3523 57° Northeast  Level Estimated
08:31AM 59.5746 22.5401 57° Northeast  Level Estimated
08:32AM 59.6352 22.7287 57° Northeast  Level Estimated
08:33AM 59.6955 22.9179 58° Northeast  Level Estimated
08:34AM 59.7556 23.1078 58° Northeast  Level Estimated
08:35AM 59.8154 23.2984 58° Northeast  Level Estimated
08:36AM 59.8749 23.4896 58° Northeast  Level Estimated
08:37AM 59.9341 23.6816 58° Northeast  Level Estimated
08:38AM 59.9930 23.8742 58° Northeast  Level Estimated
08:39AM 60.0517 24.0675 59° Northeast  Level Estimated
08:40AM 60.1101 24.2615 59° Northeast  Level Estimated
08:41AM 60.1682 24.4562 59° Northeast  Level Estimated
08:42AM 60.2260 24.6516 59° Northeast  Level Estimated
08:43AM 60.2835 24.8477 59° Northeast  Level Estimated
08:44AM 60.3172 24.9633 59° Northeast  Level Estimated
08:45AM 60.3172 24.9633 North  Level Estimated
08:46AM 60.3172 24.9633 North  Level Estimated
08:47AM 60.3172 24.9633 North  Level Estimated
08:48AM 60.3172 24.9633 North  Level Estimated
08:49AM 60.3172 24.9633 North  Level Estimated
08:50AM 60.3172 24.9633 North  Level Estimated
08:51AM 60.3172 24.9633 North  Level Estimated
08:52AM 60.3172 24.9633 North  Level Estimated
08:53AM 60.3172 24.9633 North  Level Estimated
08:54AM 60.3172 24.9633 North  Level Estimated
08:55AM 60.3172 24.9633 North  Level Estimated
08:56AM 60.3172 24.9633 North  Level Estimated
08:57AM 60.3172 24.9633 North  Level Estimated